sensor_id;sensor_type;location;lat;lon;timestamp;temperature;humidity
19248;DHT22;9758;48.640;8.148;2022-09-09T00:00:53;22.20;46.80
19248;DHT22;9758;48.640;8.148;2022-09-09T00:03:25;22.20;46.70
19248;DHT22;9758;48.640;8.148;2022-09-09T00:06:01;22.20;46.80
19248;DHT22;9758;48.640;8.148;2022-09-09T00:08:38;22.20;46.80
19248;DHT22;9758;48.640;8.148;2022-09-09T00:11:12;22.20;46.70
19248;DHT22;9758;48.640;8.148;2022-09-09T00:13:46;22.20;46.70
19248;DHT22;9758;48.640;8.148;2022-09-09T00:16:16;22.20;46.80
19248;DHT22;9758;48.640;8.148;2022-09-09T00:18:50;22.10;46.80
19248;DHT22;9758;48.640;8.148;2022-09-09T00:21:24;22.10;47.10
19248;DHT22;9758;48.640;8.148;2022-09-09T00:23:54;22.10;47.40
19248;DHT22;9758;48.640;8.148;2022-09-09T00:26:29;22.20;46.80
19248;DHT22;9758;48.640;8.148;2022-09-09T00:29:12;22.10;46.70
19248;DHT22;9758;48.640;8.148;2022-09-09T00:31:42;22.10;46.70
19248;DHT22;9758;48.640;8.148;2022-09-09T00:34:12;22.10;46.70
19248;DHT22;9758;48.640;8.148;2022-09-09T00:36:41;22.10;46.70
19248;DHT22;9758;48.640;8.148;2022-09-09T00:39:16;22.10;46.70
19248;DHT22;9758;48.640;8.148;2022-09-09T00:42:01;22.10;46.70
19248;DHT22;9758;48.640;8.148;2022-09-09T00:44:31;22.00;46.80
19248;DHT22;9758;48.640;8.148;2022-09-09T00:47:20;21.90;46.90
19248;DHT22;9758;48.640;8.148;2022-09-09T00:49:59;21.80;47.00
19248;DHT22;9758;48.640;8.148;2022-09-09T00:52:39;21.80;47.00
19248;DHT22;9758;48.640;8.148;2022-09-09T00:55:14;21.60;47.10
19248;DHT22;9758;48.640;8.148;2022-09-09T00:57:44;21.60;47.20
19248;DHT22;9758;48.640;8.148;2022-09-09T01:00:23;21.50;47.40
19248;DHT22;9758;48.640;8.148;2022-09-09T01:02:59;21.30;47.40
19248;DHT22;9758;48.640;8.148;2022-09-09T01:05:35;21.20;47.50
19248;DHT22;9758;48.640;8.148;2022-09-09T01:08:13;21.10;47.60
19248;DHT22;9758;48.640;8.148;2022-09-09T01:10:51;21.10;47.70
19248;DHT22;9758;48.640;8.148;2022-09-09T01:13:23;21.10;47.80
19248;DHT22;9758;48.640;8.148;2022-09-09T01:15:51;21.00;47.80
19248;DHT22;9758;48.640;8.148;2022-09-09T01:18:21;21.00;47.80
19248;DHT22;9758;48.640;8.148;2022-09-09T01:20:59;20.90;47.80
19248;DHT22;9758;48.640;8.148;2022-09-09T01:24:04;20.90;47.90
19248;DHT22;9758;48.640;8.148;2022-09-09T01:26:38;20.80;48.00
19248;DHT22;9758;48.640;8.148;2022-09-09T01:29:08;20.80;48.00
19248;DHT22;9758;48.640;8.148;2022-09-09T01:31:38;20.80;48.00
19248;DHT22;9758;48.640;8.148;2022-09-09T01:34:10;20.70;48.00
19248;DHT22;9758;48.640;8.148;2022-09-09T01:36:42;20.70;48.10
19248;DHT22;9758;48.640;8.148;2022-09-09T01:39:09;20.60;48.10
19248;DHT22;9758;48.640;8.148;2022-09-09T01:41:38;20.60;48.20
19248;DHT22;9758;48.640;8.148;2022-09-09T01:44:06;20.60;48.20
19248;DHT22;9758;48.640;8.148;2022-09-09T01:46:34;20.60;48.30
19248;DHT22;9758;48.640;8.148;2022-09-09T01:49:02;20.60;48.30
19248;DHT22;9758;48.640;8.148;2022-09-09T01:51:30;20.60;48.30
19248;DHT22;9758;48.640;8.148;2022-09-09T01:53:57;20.50;48.30
19248;DHT22;9758;48.640;8.148;2022-09-09T01:56:34;20.50;48.30
19248;DHT22;9758;48.640;8.148;2022-09-09T01:59:24;20.50;48.30
19248;DHT22;9758;48.640;8.148;2022-09-09T02:01:58;20.40;48.40
19248;DHT22;9758;48.640;8.148;2022-09-09T02:04:37;20.40;48.40
19248;DHT22;9758;48.640;8.148;2022-09-09T02:07:13;20.30;48.40
19248;DHT22;9758;48.640;8.148;2022-09-09T02:09:43;20.30;48.50
19248;DHT22;9758;48.640;8.148;2022-09-09T02:12:14;20.20;48.50
19248;DHT22;9758;48.640;8.148;2022-09-09T02:14:50;20.20;48.50
19248;DHT22;9758;48.640;8.148;2022-09-09T02:17:21;20.20;48.60
19248;DHT22;9758;48.640;8.148;2022-09-09T02:19:53;20.10;48.60
19248;DHT22;9758;48.640;8.148;2022-09-09T02:22:24;20.10;48.70
19248;DHT22;9758;48.640;8.148;2022-09-09T02:24:53;20.10;48.70
19248;DHT22;9758;48.640;8.148;2022-09-09T02:27:23;20.00;48.70
19248;DHT22;9758;48.640;8.148;2022-09-09T02:29:52;20.00;48.70
19248;DHT22;9758;48.640;8.148;2022-09-09T02:32:23;20.00;48.70
19248;DHT22;9758;48.640;8.148;2022-09-09T02:34:52;20.00;48.80
19248;DHT22;9758;48.640;8.148;2022-09-09T02:37:24;19.90;48.70
19248;DHT22;9758;48.640;8.148;2022-09-09T02:39:54;19.90;48.70
19248;DHT22;9758;48.640;8.148;2022-09-09T02:42:20;19.90;48.70
19248;DHT22;9758;48.640;8.148;2022-09-09T02:44:47;19.90;48.70
19248;DHT22;9758;48.640;8.148;2022-09-09T02:47:32;19.90;48.80
19248;DHT22;9758;48.640;8.148;2022-09-09T02:50:10;19.80;48.80
19248;DHT22;9758;48.640;8.148;2022-09-09T02:52:51;19.70;48.90
19248;DHT22;9758;48.640;8.148;2022-09-09T02:55:24;19.70;48.90
19248;DHT22;9758;48.640;8.148;2022-09-09T02:57:52;19.70;49.00
19248;DHT22;9758;48.640;8.148;2022-09-09T03:00:24;19.70;49.00
19248;DHT22;9758;48.640;8.148;2022-09-09T03:02:53;19.70;49.10
19248;DHT22;9758;48.640;8.148;2022-09-09T03:05:21;19.70;49.10
19248;DHT22;9758;48.640;8.148;2022-09-09T03:07:47;19.70;49.10
19248;DHT22;9758;48.640;8.148;2022-09-09T03:10:16;19.70;49.10
19248;DHT22;9758;48.640;8.148;2022-09-09T03:12:43;19.80;49.10
19248;DHT22;9758;48.640;8.148;2022-09-09T03:15:10;19.80;49.00
19248;DHT22;9758;48.640;8.148;2022-09-09T03:17:37;19.80;49.00
19248;DHT22;9758;48.640;8.148;2022-09-09T03:20:05;19.80;49.00
19248;DHT22;9758;48.640;8.148;2022-09-09T03:22:32;19.80;49.10
19248;DHT22;9758;48.640;8.148;2022-09-09T03:24:59;19.90;49.10
19248;DHT22;9758;48.640;8.148;2022-09-09T03:27:28;19.90;49.10
19248;DHT22;9758;48.640;8.148;2022-09-09T03:29:55;19.90;49.00
19248;DHT22;9758;48.640;8.148;2022-09-09T03:32:21;19.90;49.00
19248;DHT22;9758;48.640;8.148;2022-09-09T03:34:50;19.90;49.00
19248;DHT22;9758;48.640;8.148;2022-09-09T03:37:19;19.90;49.10
19248;DHT22;9758;48.640;8.148;2022-09-09T03:39:45;19.90;49.00
19248;DHT22;9758;48.640;8.148;2022-09-09T03:42:13;19.80;49.00
19248;DHT22;9758;48.640;8.148;2022-09-09T03:44:44;19.80;49.00
19248;DHT22;9758;48.640;8.148;2022-09-09T03:47:13;19.80;49.00
19248;DHT22;9758;48.640;8.148;2022-09-09T03:49:40;19.80;49.00
19248;DHT22;9758;48.640;8.148;2022-09-09T03:52:08;19.70;49.00
19248;DHT22;9758;48.640;8.148;2022-09-09T03:54:36;19.70;49.00
19248;DHT22;9758;48.640;8.148;2022-09-09T03:57:03;19.60;49.00
19248;DHT22;9758;48.640;8.148;2022-09-09T03:59:31;19.60;49.10
19248;DHT22;9758;48.640;8.148;2022-09-09T04:01:58;19.60;49.10
19248;DHT22;9758;48.640;8.148;2022-09-09T04:04:25;19.60;49.10
19248;DHT22;9758;48.640;8.148;2022-09-09T04:06:52;19.50;49.10
19248;DHT22;9758;48.640;8.148;2022-09-09T04:09:19;19.50;49.20
19248;DHT22;9758;48.640;8.148;2022-09-09T04:11:47;19.40;49.20
19248;DHT22;9758;48.640;8.148;2022-09-09T04:14:15;19.50;49.30
19248;DHT22;9758;48.640;8.148;2022-09-09T04:16:41;19.40;49.20
19248;DHT22;9758;48.640;8.148;2022-09-09T04:19:10;19.40;49.30
19248;DHT22;9758;48.640;8.148;2022-09-09T04:21:38;19.40;49.30
19248;DHT22;9758;48.640;8.148;2022-09-09T04:24:05;19.30;49.40
19248;DHT22;9758;48.640;8.148;2022-09-09T04:26:32;19.30;49.40
19248;DHT22;9758;48.640;8.148;2022-09-09T04:29:00;19.30;49.40
19248;DHT22;9758;48.640;8.148;2022-09-09T04:31:27;19.40;49.50
19248;DHT22;9758;48.640;8.148;2022-09-09T04:33:53;19.40;49.60
19248;DHT22;9758;48.640;8.148;2022-09-09T04:36:20;19.30;49.60
19248;DHT22;9758;48.640;8.148;2022-09-09T04:38:47;19.40;49.50
19248;DHT22;9758;48.640;8.148;2022-09-09T04:41:15;19.40;49.60
19248;DHT22;9758;48.640;8.148;2022-09-09T04:43:43;19.40;49.50
19248;DHT22;9758;48.640;8.148;2022-09-09T04:46:11;19.40;49.60
19248;DHT22;9758;48.640;8.148;2022-09-09T04:48:38;19.40;49.60
19248;DHT22;9758;48.640;8.148;2022-09-09T04:51:08;19.40;49.60
19248;DHT22;9758;48.640;8.148;2022-09-09T04:53:35;19.50;49.70
19248;DHT22;9758;48.640;8.148;2022-09-09T04:56:03;19.50;49.60
19248;DHT22;9758;48.640;8.148;2022-09-09T04:58:31;19.50;49.60
19248;DHT22;9758;48.640;8.148;2022-09-09T05:01:03;19.60;49.50
19248;DHT22;9758;48.640;8.148;2022-09-09T05:03:32;19.60;49.50
19248;DHT22;9758;48.640;8.148;2022-09-09T05:06:03;19.60;49.50
19248;DHT22;9758;48.640;8.148;2022-09-09T05:08:30;19.60;49.50
19248;DHT22;9758;48.640;8.148;2022-09-09T05:10:57;19.70;49.50
19248;DHT22;9758;48.640;8.148;2022-09-09T05:13:35;19.70;49.50
19248;DHT22;9758;48.640;8.148;2022-09-09T05:16:02;19.70;49.40
19248;DHT22;9758;48.640;8.148;2022-09-09T05:18:29;19.70;49.40
19248;DHT22;9758;48.640;8.148;2022-09-09T05:21:00;19.70;49.40
19248;DHT22;9758;48.640;8.148;2022-09-09T05:23:27;19.70;49.40
19248;DHT22;9758;48.640;8.148;2022-09-09T05:25:56;19.70;49.40
19248;DHT22;9758;48.640;8.148;2022-09-09T05:28:24;19.70;49.40
19248;DHT22;9758;48.640;8.148;2022-09-09T05:31:01;19.70;49.40
19248;DHT22;9758;48.640;8.148;2022-09-09T05:33:30;19.70;49.50
19248;DHT22;9758;48.640;8.148;2022-09-09T05:36:00;19.70;49.50
19248;DHT22;9758;48.640;8.148;2022-09-09T05:38:28;19.70;49.60
19248;DHT22;9758;48.640;8.148;2022-09-09T05:40:55;19.70;49.50
19248;DHT22;9758;48.640;8.148;2022-09-09T05:43:23;19.80;49.50
19248;DHT22;9758;48.640;8.148;2022-09-09T05:45:59;19.80;49.50
19248;DHT22;9758;48.640;8.148;2022-09-09T05:48:28;19.90;49.70
19248;DHT22;9758;48.640;8.148;2022-09-09T05:50:55;19.90;49.50
19248;DHT22;9758;48.640;8.148;2022-09-09T05:53:27;19.90;49.50
19248;DHT22;9758;48.640;8.148;2022-09-09T05:56:01;20.00;49.50
19248;DHT22;9758;48.640;8.148;2022-09-09T05:58:30;20.00;49.50
19248;DHT22;9758;48.640;8.148;2022-09-09T06:01:04;20.00;49.40
19248;DHT22;9758;48.640;8.148;2022-09-09T06:03:32;20.10;49.50
19248;DHT22;9758;48.640;8.148;2022-09-09T06:06:00;20.10;49.50
19248;DHT22;9758;48.640;8.148;2022-09-09T06:08:28;20.10;49.40
19248;DHT22;9758;48.640;8.148;2022-09-09T06:11:01;20.20;49.50
19248;DHT22;9758;48.640;8.148;2022-09-09T06:13:29;20.20;49.40
19248;DHT22;9758;48.640;8.148;2022-09-09T06:15:56;20.20;49.40
19248;DHT22;9758;48.640;8.148;2022-09-09T06:18:24;20.20;49.40
19248;DHT22;9758;48.640;8.148;2022-09-09T06:20:55;20.30;49.50
19248;DHT22;9758;48.640;8.148;2022-09-09T06:23:22;20.30;49.50
19248;DHT22;9758;48.640;8.148;2022-09-09T06:25:50;20.30;49.50
19248;DHT22;9758;48.640;8.148;2022-09-09T06:28:17;20.30;49.40
19248;DHT22;9758;48.640;8.148;2022-09-09T06:30:44;20.30;49.40
19248;DHT22;9758;48.640;8.148;2022-09-09T06:33:12;20.40;49.50
19248;DHT22;9758;48.640;8.148;2022-09-09T06:35:39;20.40;49.50
19248;DHT22;9758;48.640;8.148;2022-09-09T06:38:06;20.50;49.40
19248;DHT22;9758;48.640;8.148;2022-09-09T06:40:34;20.50;49.40
19248;DHT22;9758;48.640;8.148;2022-09-09T06:43:02;20.50;49.40
19248;DHT22;9758;48.640;8.148;2022-09-09T06:45:28;20.50;49.30
19248;DHT22;9758;48.640;8.148;2022-09-09T06:47:56;20.60;49.40
19248;DHT22;9758;48.640;8.148;2022-09-09T06:50:23;20.60;49.30
19248;DHT22;9758;48.640;8.148;2022-09-09T06:52:56;20.60;49.30
19248;DHT22;9758;48.640;8.148;2022-09-09T06:55:23;20.70;49.30
19248;DHT22;9758;48.640;8.148;2022-09-09T06:57:50;20.70;49.30
19248;DHT22;9758;48.640;8.148;2022-09-09T07:00:18;20.70;49.30
19248;DHT22;9758;48.640;8.148;2022-09-09T07:02:45;20.80;49.30
19248;DHT22;9758;48.640;8.148;2022-09-09T07:05:20;20.80;49.30
19248;DHT22;9758;48.640;8.148;2022-09-09T07:07:47;20.90;49.30
19248;DHT22;9758;48.640;8.148;2022-09-09T07:10:13;20.90;49.30
19248;DHT22;9758;48.640;8.148;2022-09-09T07:12:40;21.00;49.30
19248;DHT22;9758;48.640;8.148;2022-09-09T07:15:07;21.00;49.30
19248;DHT22;9758;48.640;8.148;2022-09-09T07:17:36;21.10;49.30
19248;DHT22;9758;48.640;8.148;2022-09-09T07:20:04;21.10;49.20
19248;DHT22;9758;48.640;8.148;2022-09-09T07:22:31;21.20;49.10
19248;DHT22;9758;48.640;8.148;2022-09-09T07:25:08;21.20;49.10
19248;DHT22;9758;48.640;8.148;2022-09-09T07:27:34;21.20;49.20
19248;DHT22;9758;48.640;8.148;2022-09-09T07:30:01;21.20;49.10
19248;DHT22;9758;48.640;8.148;2022-09-09T07:32:29;21.20;49.10
19248;DHT22;9758;48.640;8.148;2022-09-09T07:34:57;21.30;49.10
19248;DHT22;9758;48.640;8.148;2022-09-09T07:37:24;21.30;49.10
19248;DHT22;9758;48.640;8.148;2022-09-09T07:39:51;21.30;49.00
19248;DHT22;9758;48.640;8.148;2022-09-09T07:42:18;21.30;49.00
19248;DHT22;9758;48.640;8.148;2022-09-09T07:44:45;21.20;49.00
19248;DHT22;9758;48.640;8.148;2022-09-09T07:47:11;21.30;49.20
19248;DHT22;9758;48.640;8.148;2022-09-09T07:49:38;21.40;49.30
19248;DHT22;9758;48.640;8.148;2022-09-09T07:52:06;21.40;49.30
19248;DHT22;9758;48.640;8.148;2022-09-09T07:54:33;21.50;49.20
19248;DHT22;9758;48.640;8.148;2022-09-09T07:57:00;21.60;49.10
19248;DHT22;9758;48.640;8.148;2022-09-09T07:59:29;21.70;49.10
19248;DHT22;9758;48.640;8.148;2022-09-09T08:01:57;21.70;49.00
19248;DHT22;9758;48.640;8.148;2022-09-09T08:04:24;21.80;49.00
19248;DHT22;9758;48.640;8.148;2022-09-09T08:06:53;21.80;49.00
19248;DHT22;9758;48.640;8.148;2022-09-09T08:09:28;21.90;49.00
19248;DHT22;9758;48.640;8.148;2022-09-09T08:12:00;22.00;49.00
19248;DHT22;9758;48.640;8.148;2022-09-09T08:14:27;22.00;49.00
19248;DHT22;9758;48.640;8.148;2022-09-09T08:16:55;22.10;49.00
19248;DHT22;9758;48.640;8.148;2022-09-09T08:19:22;22.20;49.00
19248;DHT22;9758;48.640;8.148;2022-09-09T08:21:49;22.30;48.90
19248;DHT22;9758;48.640;8.148;2022-09-09T08:24:25;22.40;48.80
19248;DHT22;9758;48.640;8.148;2022-09-09T08:26:53;22.50;48.70
19248;DHT22;9758;48.640;8.148;2022-09-09T08:29:23;22.50;48.60
19248;DHT22;9758;48.640;8.148;2022-09-09T08:31:52;22.60;48.50
19248;DHT22;9758;48.640;8.148;2022-09-09T08:34:21;22.50;48.40
19248;DHT22;9758;48.640;8.148;2022-09-09T08:36:49;22.50;48.50
19248;DHT22;9758;48.640;8.148;2022-09-09T08:39:18;22.50;48.40
19248;DHT22;9758;48.640;8.148;2022-09-09T08:45:03;22.30;48.60
19248;DHT22;9758;48.640;8.148;2022-09-09T08:47:42;22.30;48.70
19248;DHT22;9758;48.640;8.148;2022-09-09T08:50:19;22.40;48.70
19248;DHT22;9758;48.640;8.148;2022-09-09T08:52:54;22.40;48.60
19248;DHT22;9758;48.640;8.148;2022-09-09T08:55:27;22.50;48.60
19248;DHT22;9758;48.640;8.148;2022-09-09T08:57:58;22.60;48.50
19248;DHT22;9758;48.640;8.148;2022-09-09T09:00:33;22.70;48.50
19248;DHT22;9758;48.640;8.148;2022-09-09T09:03:35;22.70;48.30
19248;DHT22;9758;48.640;8.148;2022-09-09T09:06:20;22.60;48.30
19248;DHT22;9758;48.640;8.148;2022-09-09T09:08:58;22.70;48.50
19248;DHT22;9758;48.640;8.148;2022-09-09T09:11:35;22.70;48.40
19248;DHT22;9758;48.640;8.148;2022-09-09T09:14:09;22.70;48.50
19248;DHT22;9758;48.640;8.148;2022-09-09T09:16:40;22.80;48.50
19248;DHT22;9758;48.640;8.148;2022-09-09T09:19:13;22.80;48.30
19248;DHT22;9758;48.640;8.148;2022-09-09T09:21:43;22.90;48.30
19248;DHT22;9758;48.640;8.148;2022-09-09T09:24:16;22.90;48.10
19248;DHT22;9758;48.640;8.148;2022-09-09T09:26:46;22.80;47.90
19248;DHT22;9758;48.640;8.148;2022-09-09T09:29:16;22.70;48.00
19248;DHT22;9758;48.640;8.148;2022-09-09T09:31:45;22.60;48.20
19248;DHT22;9758;48.640;8.148;2022-09-09T09:34:13;22.50;48.20
19248;DHT22;9758;48.640;8.148;2022-09-09T09:36:43;22.40;48.30
19248;DHT22;9758;48.640;8.148;2022-09-09T09:39:22;22.40;48.50
19248;DHT22;9758;48.640;8.148;2022-09-09T09:41:49;22.40;48.50
19248;DHT22;9758;48.640;8.148;2022-09-09T09:44:27;22.40;48.50
19248;DHT22;9758;48.640;8.148;2022-09-09T09:47:05;22.40;48.50
19248;DHT22;9758;48.640;8.148;2022-09-09T09:49:32;22.40;48.60
19248;DHT22;9758;48.640;8.148;2022-09-09T09:52:00;22.50;48.80
19248;DHT22;9758;48.640;8.148;2022-09-09T09:54:29;22.50;48.80
19248;DHT22;9758;48.640;8.148;2022-09-09T09:57:06;22.50;48.80
19248;DHT22;9758;48.640;8.148;2022-09-09T09:59:35;22.50;48.70
19248;DHT22;9758;48.640;8.148;2022-09-09T10:02:21;22.50;48.70
19248;DHT22;9758;48.640;8.148;2022-09-09T10:05:01;22.50;48.70
19248;DHT22;9758;48.640;8.148;2022-09-09T10:07:28;22.50;48.70
19248;DHT22;9758;48.640;8.148;2022-09-09T10:09:56;22.50;48.70
19248;DHT22;9758;48.640;8.148;2022-09-09T10:12:30;22.50;48.70
19248;DHT22;9758;48.640;8.148;2022-09-09T10:15:05;22.50;48.60
19248;DHT22;9758;48.640;8.148;2022-09-09T10:17:38;22.50;48.60
19248;DHT22;9758;48.640;8.148;2022-09-09T10:20:27;22.50;49.20
19248;DHT22;9758;48.640;8.148;2022-09-09T10:23:07;22.50;48.60
19248;DHT22;9758;48.640;8.148;2022-09-09T10:25:54;22.50;48.60
19248;DHT22;9758;48.640;8.148;2022-09-09T10:28:39;22.40;48.50
19248;DHT22;9758;48.640;8.148;2022-09-09T10:31:19;22.30;48.40
19248;DHT22;9758;48.640;8.148;2022-09-09T10:33:51;22.20;48.50
19248;DHT22;9758;48.640;8.148;2022-09-09T10:36:24;22.20;48.50
19248;DHT22;9758;48.640;8.148;2022-09-09T10:38:54;22.20;48.70
19248;DHT22;9758;48.640;8.148;2022-09-09T10:41:35;22.10;48.70
19248;DHT22;9758;48.640;8.148;2022-09-09T10:44:21;22.20;48.80
19248;DHT22;9758;48.640;8.148;2022-09-09T10:47:06;22.20;48.80
19248;DHT22;9758;48.640;8.148;2022-09-09T10:49:57;22.20;48.80
19248;DHT22;9758;48.640;8.148;2022-09-09T10:52:32;22.30;49.00
19248;DHT22;9758;48.640;8.148;2022-09-09T10:55:08;22.40;49.00
19248;DHT22;9758;48.640;8.148;2022-09-09T10:57:39;22.60;49.00
19248;DHT22;9758;48.640;8.148;2022-09-09T11:00:16;22.60;48.90
19248;DHT22;9758;48.640;8.148;2022-09-09T11:02:48;22.80;48.70
19248;DHT22;9758;48.640;8.148;2022-09-09T11:05:28;22.80;48.50
19248;DHT22;9758;48.640;8.148;2022-09-09T11:07:59;22.80;48.40
19248;DHT22;9758;48.640;8.148;2022-09-09T11:10:34;22.90;48.30
19248;DHT22;9758;48.640;8.148;2022-09-09T11:13:04;23.00;48.40
19248;DHT22;9758;48.640;8.148;2022-09-09T11:15:39;23.10;48.50
19248;DHT22;9758;48.640;8.148;2022-09-09T11:18:13;23.20;48.50
19248;DHT22;9758;48.640;8.148;2022-09-09T11:20:43;23.20;48.30
19248;DHT22;9758;48.640;8.148;2022-09-09T11:23:15;23.40;48.20
19248;DHT22;9758;48.640;8.148;2022-09-09T11:25:45;23.40;48.00
19248;DHT22;9758;48.640;8.148;2022-09-09T11:28:28;23.50;47.90
19248;DHT22;9758;48.640;8.148;2022-09-09T11:34:24;23.40;47.60
19248;DHT22;9758;48.640;8.148;2022-09-09T11:37:08;23.30;47.60
19248;DHT22;9758;48.640;8.148;2022-09-09T11:39:49;23.20;47.70
19248;DHT22;9758;48.640;8.148;2022-09-09T11:42:21;23.20;47.80
19248;DHT22;9758;48.640;8.148;2022-09-09T11:44:49;23.20;47.80
19248;DHT22;9758;48.640;8.148;2022-09-09T11:47:20;23.20;47.80
19248;DHT22;9758;48.640;8.148;2022-09-09T11:49:50;23.30;48.00
19248;DHT22;9758;48.640;8.148;2022-09-09T11:52:25;23.40;48.00
19248;DHT22;9758;48.640;8.148;2022-09-09T11:55:09;23.50;47.90
19248;DHT22;9758;48.640;8.148;2022-09-09T11:57:37;23.50;47.70
19248;DHT22;9758;48.640;8.148;2022-09-09T12:00:32;23.60;47.70
19248;DHT22;9758;48.640;8.148;2022-09-09T12:03:00;23.60;47.60
19248;DHT22;9758;48.640;8.148;2022-09-09T12:05:38;23.70;47.40
19248;DHT22;9758;48.640;8.148;2022-09-09T12:08:08;23.70;47.50
19248;DHT22;9758;48.640;8.148;2022-09-09T12:10:38;23.70;47.70
19248;DHT22;9758;48.640;8.148;2022-09-09T12:13:16;23.80;47.50
19248;DHT22;9758;48.640;8.148;2022-09-09T12:15:51;23.80;46.90
19248;DHT22;9758;48.640;8.148;2022-09-09T12:18:22;23.80;47.20
19248;DHT22;9758;48.640;8.148;2022-09-09T12:20:59;23.80;47.20
19248;DHT22;9758;48.640;8.148;2022-09-09T12:23:40;23.80;47.10
19248;DHT22;9758;48.640;8.148;2022-09-09T12:26:24;23.80;47.30
19248;DHT22;9758;48.640;8.148;2022-09-09T12:29:03;23.90;47.30
19248;DHT22;9758;48.640;8.148;2022-09-09T12:31:35;24.10;47.30
19248;DHT22;9758;48.640;8.148;2022-09-09T12:34:32;24.10;47.10
19248;DHT22;9758;48.640;8.148;2022-09-09T12:37:06;24.20;46.80
19248;DHT22;9758;48.640;8.148;2022-09-09T12:39:37;24.20;46.80
19248;DHT22;9758;48.640;8.148;2022-09-09T12:42:18;24.30;46.80
19248;DHT22;9758;48.640;8.148;2022-09-09T12:44:56;24.30;46.70
19248;DHT22;9758;48.640;8.148;2022-09-09T12:47:29;24.30;46.50
19248;DHT22;9758;48.640;8.148;2022-09-09T12:49:57;24.20;46.40
19248;DHT22;9758;48.640;8.148;2022-09-09T12:52:28;24.20;46.60
19248;DHT22;9758;48.640;8.148;2022-09-09T12:54:57;24.20;46.50
19248;DHT22;9758;48.640;8.148;2022-09-09T12:57:26;24.10;46.30
19248;DHT22;9758;48.640;8.148;2022-09-09T13:00:05;24.10;46.20
19248;DHT22;9758;48.640;8.148;2022-09-09T13:02:33;23.80;46.30
19248;DHT22;9758;48.640;8.148;2022-09-09T13:05:12;23.70;46.50
19248;DHT22;9758;48.640;8.148;2022-09-09T13:07:41;23.70;46.60
19248;DHT22;9758;48.640;8.148;2022-09-09T13:10:24;23.60;46.70
19248;DHT22;9758;48.640;8.148;2022-09-09T13:12:52;23.50;46.80
19248;DHT22;9758;48.640;8.148;2022-09-09T13:15:21;23.40;46.90
19248;DHT22;9758;48.640;8.148;2022-09-09T13:17:52;23.40;47.00
19248;DHT22;9758;48.640;8.148;2022-09-09T13:20:20;23.30;46.90
19248;DHT22;9758;48.640;8.148;2022-09-09T13:22:59;23.30;46.80
19248;DHT22;9758;48.640;8.148;2022-09-09T13:25:27;23.20;47.00
19248;DHT22;9758;48.640;8.148;2022-09-09T13:28:00;23.20;47.30
19248;DHT22;9758;48.640;8.148;2022-09-09T13:30:29;23.20;47.30
19248;DHT22;9758;48.640;8.148;2022-09-09T13:33:01;23.20;47.30
19248;DHT22;9758;48.640;8.148;2022-09-09T13:35:28;23.20;47.30
19248;DHT22;9758;48.640;8.148;2022-09-09T13:38:14;23.30;47.40
19248;DHT22;9758;48.640;8.148;2022-09-09T13:40:52;23.40;47.40
19248;DHT22;9758;48.640;8.148;2022-09-09T13:43:22;23.50;47.50
19248;DHT22;9758;48.640;8.148;2022-09-09T13:45:53;23.70;47.30
19248;DHT22;9758;48.640;8.148;2022-09-09T13:48:22;23.80;47.20
19248;DHT22;9758;48.640;8.148;2022-09-09T13:50:54;23.90;47.00
19248;DHT22;9758;48.640;8.148;2022-09-09T13:53:31;24.00;46.80
19248;DHT22;9758;48.640;8.148;2022-09-09T13:56:01;24.10;46.80
19248;DHT22;9758;48.640;8.148;2022-09-09T13:58:28;24.10;46.90
19248;DHT22;9758;48.640;8.148;2022-09-09T14:00:55;24.20;46.90
19248;DHT22;9758;48.640;8.148;2022-09-09T14:03:32;24.40;46.90
19248;DHT22;9758;48.640;8.148;2022-09-09T14:06:00;24.50;46.70
19248;DHT22;9758;48.640;8.148;2022-09-09T14:08:27;24.50;46.40
19248;DHT22;9758;48.640;8.148;2022-09-09T14:11:03;24.60;46.50
19248;DHT22;9758;48.640;8.148;2022-09-09T14:13:30;24.60;46.30
19248;DHT22;9758;48.640;8.148;2022-09-09T14:15:57;24.60;46.20
19248;DHT22;9758;48.640;8.148;2022-09-09T14:18:23;24.50;46.10
19248;DHT22;9758;48.640;8.148;2022-09-09T14:20:50;24.40;46.10
19248;DHT22;9758;48.640;8.148;2022-09-09T14:23:34;24.40;46.20
19248;DHT22;9758;48.640;8.148;2022-09-09T14:26:00;24.30;46.30
19248;DHT22;9758;48.640;8.148;2022-09-09T14:28:28;24.30;46.50
19248;DHT22;9758;48.640;8.148;2022-09-09T14:30:59;24.30;46.50
19248;DHT22;9758;48.640;8.148;2022-09-09T14:33:25;24.40;46.60
19248;DHT22;9758;48.640;8.148;2022-09-09T14:35:56;24.40;46.50
19248;DHT22;9758;48.640;8.148;2022-09-09T14:41:39;24.50;46.20
19248;DHT22;9758;48.640;8.148;2022-09-09T14:44:07;24.40;46.00
19248;DHT22;9758;48.640;8.148;2022-09-09T14:46:35;24.40;46.10
19248;DHT22;9758;48.640;8.148;2022-09-09T14:49:02;24.20;46.10
19248;DHT22;9758;48.640;8.148;2022-09-09T14:51:29;24.20;46.10
19248;DHT22;9758;48.640;8.148;2022-09-09T14:53:57;24.10;46.10
19248;DHT22;9758;48.640;8.148;2022-09-09T14:56:25;24.00;46.20
19248;DHT22;9758;48.640;8.148;2022-09-09T15:02:01;23.10;47.00
19248;DHT22;9758;48.640;8.148;2022-09-09T15:04:29;22.20;48.00
19248;DHT22;9758;48.640;8.148;2022-09-09T15:06:56;21.40;49.40
19248;DHT22;9758;48.640;8.148;2022-09-09T15:09:42;20.90;49.70
19248;DHT22;9758;48.640;8.148;2022-09-09T15:12:10;20.40;51.00
19248;DHT22;9758;48.640;8.148;2022-09-09T15:14:36;20.20;51.30
19248;DHT22;9758;48.640;8.148;2022-09-09T15:17:05;20.00;51.60
19248;DHT22;9758;48.640;8.148;2022-09-09T15:19:31;20.00;52.00
19248;DHT22;9758;48.640;8.148;2022-09-09T15:21:58;19.90;52.20
19248;DHT22;9758;48.640;8.148;2022-09-09T15:24:25;19.90;52.40
19248;DHT22;9758;48.640;8.148;2022-09-09T15:26:52;20.00;52.70
19248;DHT22;9758;48.640;8.148;2022-09-09T15:29:19;20.00;52.70
19248;DHT22;9758;48.640;8.148;2022-09-09T15:31:46;20.00;52.90
19248;DHT22;9758;48.640;8.148;2022-09-09T15:34:14;20.10;53.00
19248;DHT22;9758;48.640;8.148;2022-09-09T15:36:42;20.10;52.90
19248;DHT22;9758;48.640;8.148;2022-09-09T15:39:10;20.10;52.90
19248;DHT22;9758;48.640;8.148;2022-09-09T15:41:38;20.10;52.90
19248;DHT22;9758;48.640;8.148;2022-09-09T15:44:05;20.10;53.00
19248;DHT22;9758;48.640;8.148;2022-09-09T15:46:33;20.20;53.00
19248;DHT22;9758;48.640;8.148;2022-09-09T15:49:04;20.20;52.90
19248;DHT22;9758;48.640;8.148;2022-09-09T15:51:33;20.10;52.90
19248;DHT22;9758;48.640;8.148;2022-09-09T15:54:00;20.10;52.90
19248;DHT22;9758;48.640;8.148;2022-09-09T15:56:28;20.00;52.80
19248;DHT22;9758;48.640;8.148;2022-09-09T15:58:57;20.00;53.00
19248;DHT22;9758;48.640;8.148;2022-09-09T16:01:25;19.90;53.00
19248;DHT22;9758;48.640;8.148;2022-09-09T16:03:52;19.90;53.10
19248;DHT22;9758;48.640;8.148;2022-09-09T16:06:22;19.90;52.90
19248;DHT22;9758;48.640;8.148;2022-09-09T16:08:52;19.80;52.90
19248;DHT22;9758;48.640;8.148;2022-09-09T16:11:21;19.80;52.90
19248;DHT22;9758;48.640;8.148;2022-09-09T16:13:50;19.80;52.80
19248;DHT22;9758;48.640;8.148;2022-09-09T16:16:19;19.80;52.80
19248;DHT22;9758;48.640;8.148;2022-09-09T16:18:48;19.80;52.80
19248;DHT22;9758;48.640;8.148;2022-09-09T16:21:19;19.80;52.80
19248;DHT22;9758;48.640;8.148;2022-09-09T16:23:47;19.80;52.70